Time;durP1;ratioP1;P1;durP2;ratioP2;P2;SDS_P1;SDS_P2;PMS_P1;PMS_P2;Temp;Humidity;BMP_temperature;BMP_pressure;BME280_temperature;BME280_humidity;BME280_pressure;Samples;Min_cycle;Max_cycle;Signal;HPM_P1;HPM_P2
2023/11/25 00:02:23;;;;;;;12.90;6.50;;;;;;;-128.00;-1.00;-1.00;105438;1252;1004046;-78
2023/11/25 00:04:50;;;;;;;11.50;5.20;;;;;;;-128.00;-1.00;-1.00;105412;1253;1004268;-78
2023/11/25 00:07:16;;;;;;;7.90;4.90;;;;;;;-128.00;-1.00;-1.00;105382;1252;1003761;-78
2023/11/25 00:09:43;;;;;;;7.50;5.80;;;;;;;-128.00;-1.00;-1.00;105449;1252;1004395;-78
2023/11/25 00:12:09;;;;;;;10.90;5.30;;;;;;;-128.00;-1.00;-1.00;105554;1252;1004940;-78
2023/11/25 00:14:36;;;;;;;6.60;4.10;;;;;;;-128.00;-1.00;-1.00;105455;1252;1003442;-78
2023/11/25 00:17:03;;;;;;;6.90;4.00;;;;;;;-128.00;-1.00;-1.00;105462;1252;1004007;-78
2023/11/25 00:19:29;;;;;;;8.40;3.70;;;;;;;-128.00;-1.00;-1.00;105429;1252;1004568;-78
2023/11/25 00:21:56;;;;;;;6.80;3.40;;;;;;;-128.00;-1.00;-1.00;105454;1252;1004854;-78
2023/11/25 00:24:22;;;;;;;10.60;4.80;;;;;;;-128.00;-1.00;-1.00;105388;1253;1004911;-78
2023/11/25 00:26:49;;;;;;;8.50;4.10;;;;;;;-128.00;-1.00;-1.00;105400;1252;1005128;-78
2023/11/25 00:29:15;;;;;;;12.70;5.80;;;;;;;-128.00;-1.00;-1.00;105547;1252;1004356;-78
2023/11/25 00:31:42;;;;;;;6.20;4.20;;;;;;;-128.00;-1.00;-1.00;105642;1252;1004770;-78
2023/11/25 00:34:09;;;;;;;6.40;3.00;;;;;;;-128.00;-1.00;-1.00;105548;1252;1004916;-78
2023/11/25 00:36:35;;;;;;;5.50;3.60;;;;;;;-128.00;-1.00;-1.00;105388;1252;1004564;-78
2023/11/25 00:39:04;;;;;;;6.90;5.80;;;;;;;-128.00;-1.00;-1.00;105523;1252;1004255;-79
2023/11/25 00:41:31;;;;;;;8.70;4.30;;;;;;;-128.00;-1.00;-1.00;105634;1252;1062217;-78
2023/11/25 00:43:58;;;;;;;15.70;6.40;;;;;;;-128.00;-1.00;-1.00;105462;1252;1003293;-78
2023/11/25 00:46:25;;;;;;;9.40;5.00;;;;;;;-128.00;-1.00;-1.00;105381;1252;1004659;-78
2023/11/25 00:48:52;;;;;;;9.50;4.50;;;;;;;-128.00;-1.00;-1.00;105402;1252;1004050;-78
2023/11/25 00:51:19;;;;;;;10.20;6.20;;;;;;;-128.00;-1.00;-1.00;105456;1252;1004087;-79
2023/11/25 00:53:45;;;;;;;14.50;6.50;;;;;;;-128.00;-1.00;-1.00;105439;1253;1003796;-78
2023/11/25 00:56:12;;;;;;;11.40;5.50;;;;;;;-128.00;-1.00;-1.00;105468;1253;1004805;-78
2023/11/25 00:58:39;;;;;;;7.20;3.60;;;;;;;-128.00;-1.00;-1.00;105426;1252;1004497;-78
2023/11/25 01:01:05;;;;;;;10.40;5.40;;;;;;;-128.00;-1.00;-1.00;105657;1253;1003895;-79
2023/11/25 01:03:32;;;;;;;15.90;6.60;;;;;;;-128.00;-1.00;-1.00;105539;1252;1004740;-78
2023/11/25 01:05:59;;;;;;;13.40;7.30;;;;;;;-128.00;-1.00;-1.00;105380;1252;1004775;-79
2023/11/25 01:08:29;;;;;;;11.70;5.60;;;;;;;-128.00;-1.00;-1.00;105323;1252;1004213;-79
2023/11/25 01:10:55;;;;;;;13.00;7.40;;;;;;;-128.00;-1.00;-1.00;105455;1252;1059013;-78
2023/11/25 01:13:22;;;;;;;14.40;6.60;;;;;;;-128.00;-1.00;-1.00;105433;1252;1004777;-78
2023/11/25 01:15:49;;;;;;;16.50;9.20;;;;;;;-128.00;-1.00;-1.00;105415;1256;1003603;-78
2023/11/25 01:18:16;;;;;;;17.70;8.80;;;;;;;-128.00;-1.00;-1.00;105448;1253;1004855;-78
2023/11/25 01:20:43;;;;;;;19.20;8.80;;;;;;;-128.00;-1.00;-1.00;105450;1252;1004329;-78
2023/11/25 01:23:10;;;;;;;9.50;4.80;;;;;;;-128.00;-1.00;-1.00;105422;1252;1004123;-78
2023/11/25 01:25:36;;;;;;;10.00;5.40;;;;;;;-128.00;-1.00;-1.00;105437;1253;1004369;-78
2023/11/25 01:28:06;;;;;;;12.30;6.50;;;;;;;-128.00;-1.00;-1.00;105423;1251;1004813;-78
2023/11/25 01:30:33;;;;;;;9.80;4.90;;;;;;;-128.00;-1.00;-1.00;105437;1252;1062213;-78
2023/11/25 01:33:01;;;;;;;7.90;4.70;;;;;;;-128.00;-1.00;-1.00;105428;1252;1004998;-78
2023/11/25 01:35:28;;;;;;;8.40;4.10;;;;;;;-128.00;-1.00;-1.00;105444;1253;1059509;-80
2023/11/25 01:37:54;;;;;;;9.70;4.90;;;;;;;-128.00;-1.00;-1.00;105457;1252;1004093;-78
2023/11/25 01:40:23;;;;;;;15.70;6.20;;;;;;;-128.00;-1.00;-1.00;105445;1251;1004371;-80
2023/11/25 01:42:50;;;;;;;9.30;4.90;;;;;;;-128.00;-1.00;-1.00;105385;1252;1004835;-78
2023/11/25 01:45:17;;;;;;;7.90;4.50;;;;;;;-128.00;-1.00;-1.00;105429;1252;1004364;-78
2023/11/25 01:47:43;;;;;;;7.00;4.60;;;;;;;-128.00;-1.00;-1.00;105407;1252;1004962;-78
2023/11/25 01:50:10;;;;;;;7.30;3.70;;;;;;;-128.00;-1.00;-1.00;105426;1253;1004921;-78
2023/11/25 01:52:37;;;;;;;6.40;3.30;;;;;;;-128.00;-1.00;-1.00;105418;1252;1004781;-78
2023/11/25 01:55:04;;;;;;;6.70;3.60;;;;;;;-128.00;-1.00;-1.00;105537;1252;1004402;-78
2023/11/25 01:57:31;;;;;;;5.60;3.60;;;;;;;-128.00;-1.00;-1.00;105633;1252;1003643;-78
2023/11/25 01:59:57;;;;;;;5.30;4.20;;;;;;;-128.00;-1.00;-1.00;105654;1253;1004292;-78
2023/11/25 02:02:25;;;;;;;7.50;3.90;;;;;;;-128.00;-1.00;-1.00;105646;1253;1004240;-80
2023/11/25 02:04:52;;;;;;;5.30;3.40;;;;;;;-128.00;-1.00;-1.00;105621;1253;1004246;-79
2023/11/25 02:07:19;;;;;;;6.30;3.80;;;;;;;-128.00;-1.00;-1.00;105669;1252;1003831;-79
2023/11/25 02:09:45;;;;;;;7.60;4.80;;;;;;;-128.00;-1.00;-1.00;105632;1253;1005036;-78
2023/11/25 02:12:12;;;;;;;6.50;4.10;;;;;;;-128.00;-1.00;-1.00;105634;1252;1003706;-78
2023/11/25 02:14:38;;;;;;;11.50;7.10;;;;;;;-128.00;-1.00;-1.00;105610;1253;1004698;-79
2023/11/25 02:17:05;;;;;;;9.30;4.90;;;;;;;-128.00;-1.00;-1.00;105653;1252;1004590;-78
2023/11/25 02:19:31;;;;;;;7.60;5.20;;;;;;;-128.00;-1.00;-1.00;105631;1252;1004760;-79
2023/11/25 02:21:58;;;;;;;12.40;7.70;;;;;;;-128.00;-1.00;-1.00;105642;1253;1004037;-79
2023/11/25 02:24:26;;;;;;;13.80;8.00;;;;;;;-128.00;-1.00;-1.00;105596;1252;1004371;-78
2023/11/25 02:26:58;;;;;;;35.00;14.40;;;;;;;-128.00;-1.00;-1.00;105607;1254;1003791;-78
2023/11/25 02:29:26;;;;;;;14.30;7.30;;;;;;;-128.00;-1.00;-1.00;105664;1252;1046463;-78
2023/11/25 02:31:52;;;;;;;9.50;4.50;;;;;;;-128.00;-1.00;-1.00;105493;1252;1003742;-78
2023/11/25 02:34:20;;;;;;;6.20;3.70;;;;;;;-128.00;-1.00;-1.00;105367;1253;1004526;-79
2023/11/25 02:36:48;;;;;;;9.30;3.90;;;;;;;-128.00;-1.00;-1.00;105411;1252;1004800;-79
2023/11/25 02:39:17;;;;;;;5.00;3.00;;;;;;;-128.00;-1.00;-1.00;105353;1252;1004574;-79
2023/11/25 02:41:51;;;;;;;8.90;4.00;;;;;;;-128.00;-1.00;-1.00;105418;1252;1048464;-79
2023/11/25 02:44:17;;;;;;;5.60;3.40;;;;;;;-128.00;-1.00;-1.00;105199;1253;1061207;-78
2023/11/25 02:46:45;;;;;;;5.90;3.10;;;;;;;-128.00;-1.00;-1.00;105418;1252;1005460;-78
2023/11/25 02:49:12;;;;;;;15.80;7.30;;;;;;;-128.00;-1.00;-1.00;105622;1252;1003976;-79
2023/11/25 02:51:46;;;;;;;13.70;6.30;;;;;;;-128.00;-1.00;-1.00;105664;1253;1004710;-79
2023/11/25 02:54:12;;;;;;;12.90;7.60;;;;;;;-128.00;-1.00;-1.00;105420;1252;1047183;-79
2023/11/25 02:56:39;;;;;;;7.60;5.30;;;;;;;-128.00;-1.00;-1.00;105420;1252;1004441;-78
2023/11/25 02:59:07;;;;;;;6.00;4.30;;;;;;;-128.00;-1.00;-1.00;105390;1252;1004645;-79
2023/11/25 03:01:36;;;;;;;6.50;2.70;;;;;;;-128.00;-1.00;-1.00;105411;1252;1004283;-79
2023/11/25 03:04:05;;;;;;;3.70;2.60;;;;;;;-128.00;-1.00;-1.00;105385;1252;1044793;-79
2023/11/25 03:06:32;;;;;;;;;;;;;;;-128.00;-1.00;-1.00;105442;1253;1047220;-79
2023/11/25 03:08:59;;;;;;;4.50;2.40;;;;;;;-128.00;-1.00;-1.00;105398;1252;1004795;-79
2023/11/25 03:11:28;;;;;;;4.10;2.50;;;;;;;-128.00;-1.00;-1.00;105424;1252;1003606;-79
2023/11/25 03:13:55;;;;;;;4.50;2.60;;;;;;;-128.00;-1.00;-1.00;105383;1253;1059830;-78
2023/11/25 03:16:24;;;;;;;4.50;3.20;;;;;;;-128.00;-1.00;-1.00;105342;1253;1004335;-79
2023/11/25 03:18:51;;;;;;;7.50;3.40;;;;;;;-128.00;-1.00;-1.00;105371;1253;1049819;-79
2023/11/25 03:21:19;;;;;;;6.40;4.20;;;;;;;-128.00;-1.00;-1.00;105444;1253;1004171;-79
2023/11/25 03:23:47;;;;;;;5.30;3.00;;;;;;;-128.00;-1.00;-1.00;105369;1253;1057672;-79
2023/11/25 03:26:14;;;;;;;7.90;2.70;;;;;;;-128.00;-1.00;-1.00;105333;1253;1004392;-80
2023/11/25 03:28:41;;;;;;;4.40;3.50;;;;;;;-128.00;-1.00;-1.00;105366;1253;1003587;-79
2023/11/25 03:31:08;;;;;;;6.60;4.80;;;;;;;-128.00;-1.00;-1.00;105411;1252;1004411;-79
2023/11/25 03:33:34;;;;;;;6.70;4.10;;;;;;;-128.00;-1.00;-1.00;105510;1252;1004157;-79
2023/11/25 03:36:01;;;;;;;7.50;5.80;;;;;;;-128.00;-1.00;-1.00;105608;1253;1004148;-79
2023/11/25 03:38:28;;;;;;;6.90;4.70;;;;;;;-128.00;-1.00;-1.00;105575;1252;1004099;-79
2023/11/25 03:40:55;;;;;;;19.50;8.50;;;;;;;-128.00;-1.00;-1.00;105597;1253;1004979;-79
2023/11/25 03:43:23;;;;;;;7.70;5.90;;;;;;;-128.00;-1.00;-1.00;105662;1253;1004624;-79
2023/11/25 03:45:50;;;;;;;11.90;5.20;;;;;;;-128.00;-1.00;-1.00;105643;1252;1004754;-79
2023/11/25 03:48:16;;;;;;;14.50;6.60;;;;;;;-128.00;-1.00;-1.00;105621;1255;1003594;-79
2023/11/25 03:50:45;;;;;;;6.90;3.50;;;;;;;-128.00;-1.00;-1.00;105645;1252;1003412;-79
2023/11/25 03:53:11;;;;;;;10.00;5.10;;;;;;;-128.00;-1.00;-1.00;105391;1253;1004689;-79
2023/11/25 03:55:39;;;;;;;5.20;3.00;;;;;;;-128.00;-1.00;-1.00;105384;1253;1004728;-79
2023/11/25 03:58:06;;;;;;;5.80;4.50;;;;;;;-128.00;-1.00;-1.00;105414;1252;1004642;-79
2023/11/25 04:00:33;;;;;;;8.10;4.90;;;;;;;-128.00;-1.00;-1.00;105338;1253;1004019;-78
2023/11/25 04:03:01;;;;;;;5.70;3.10;;;;;;;-128.00;-1.00;-1.00;105426;1253;1003944;-79
2023/11/25 04:05:28;;;;;;;3.40;2.60;;;;;;;-128.00;-1.00;-1.00;105383;1253;1005190;-79
2023/11/25 04:07:54;;;;;;;8.00;6.00;;;;;;;-128.00;-1.00;-1.00;105417;1253;1003548;-78
2023/11/25 04:10:23;;;;;;;10.60;5.80;;;;;;;-128.00;-1.00;-1.00;105430;1252;1004279;-79
2023/11/25 04:12:53;;;;;;;;;;;;;;;-128.00;-1.00;-1.00;105431;1253;1058299;-80
2023/11/25 04:15:19;;;;;;;22.30;15.40;;;;;;;-128.00;-1.00;-1.00;105406;1252;1060050;-79
2023/11/25 04:17:46;;;;;;;12.80;7.10;;;;;;;-128.00;-1.00;-1.00;105477;1253;1004849;-80
2023/11/25 04:20:12;;;;;;;5.40;4.10;;;;;;;-128.00;-1.00;-1.00;105582;1253;1004504;-80
2023/11/25 04:22:40;;;;;;;8.40;3.70;;;;;;;-128.00;-1.00;-1.00;105311;1253;1004383;-79
2023/11/25 04:25:08;;;;;;;7.50;4.00;;;;;;;-128.00;-1.00;-1.00;105334;1252;1005149;-80
2023/11/25 04:27:35;;;;;;;5.10;3.30;;;;;;;-128.00;-1.00;-1.00;105376;1253;1004164;-79
2023/11/25 04:30:02;;;;;;;5.20;3.10;;;;;;;-128.00;-1.00;-1.00;105685;1252;1003443;-79
2023/11/25 04:32:29;;;;;;;6.60;4.20;;;;;;;-128.00;-1.00;-1.00;105639;1251;1003543;-79
2023/11/25 04:34:56;;;;;;;6.50;3.40;;;;;;;-128.00;-1.00;-1.00;105671;1253;1004070;-79
2023/11/25 04:37:22;;;;;;;5.90;3.80;;;;;;;-128.00;-1.00;-1.00;105438;1254;1003993;-79
2023/11/25 04:39:49;;;;;;;7.10;4.20;;;;;;;-128.00;-1.00;-1.00;105421;1251;1003445;-79
2023/11/25 04:42:15;;;;;;;7.30;4.80;;;;;;;-128.00;-1.00;-1.00;105408;1252;1004202;-79
2023/11/25 04:44:42;;;;;;;10.10;6.10;;;;;;;-128.00;-1.00;-1.00;105392;1253;1003682;-78
2023/11/25 04:47:09;;;;;;;10.50;6.00;;;;;;;-128.00;-1.00;-1.00;105370;1252;1005388;-78
2023/11/25 04:49:35;;;;;;;10.10;6.60;;;;;;;-128.00;-1.00;-1.00;105364;1253;1003935;-79
2023/11/25 04:52:04;;;;;;;7.90;5.50;;;;;;;-128.00;-1.00;-1.00;105385;1253;1004891;-79
2023/11/25 04:54:32;;;;;;;18.60;11.60;;;;;;;-128.00;-1.00;-1.00;105404;1256;1003723;-79
2023/11/25 04:56:59;;;;;;;16.00;10.20;;;;;;;-128.00;-1.00;-1.00;105383;1253;1004659;-79
2023/11/25 04:59:25;;;;;;;20.30;11.70;;;;;;;-128.00;-1.00;-1.00;105630;1252;1003374;-78
2023/11/25 05:01:52;;;;;;;21.50;13.20;;;;;;;-128.00;-1.00;-1.00;105349;1253;1004218;-79
2023/11/25 05:04:18;;;;;;;25.30;15.00;;;;;;;-128.00;-1.00;-1.00;105351;1253;1003702;-79
2023/11/25 05:06:46;;;;;;;23.20;13.60;;;;;;;-128.00;-1.00;-1.00;105375;1253;1003372;-79
2023/11/25 05:09:18;;;;;;;24.60;13.60;;;;;;;-128.00;-1.00;-1.00;105418;1253;1005026;-78
2023/11/25 05:11:45;;;;;;;21.00;11.60;;;;;;;-128.00;-1.00;-1.00;105367;1253;1061766;-79
2023/11/25 05:14:12;;;;;;;20.40;11.10;;;;;;;-128.00;-1.00;-1.00;105403;1253;1004327;-78
2023/11/25 05:16:39;;;;;;;11.00;7.50;;;;;;;-128.00;-1.00;-1.00;105417;1252;1004883;-78
2023/11/25 05:19:05;;;;;;;12.90;7.20;;;;;;;-128.00;-1.00;-1.00;105396;1253;1004331;-80
2023/11/25 05:21:32;;;;;;;10.80;6.50;;;;;;;-128.00;-1.00;-1.00;105396;1253;1004463;-78
2023/11/25 05:23:59;;;;;;;10.70;6.10;;;;;;;-128.00;-1.00;-1.00;105392;1253;1003556;-79
2023/11/25 05:26:25;;;;;;;8.90;5.30;;;;;;;-128.00;-1.00;-1.00;105517;1252;1004123;-79
2023/11/25 05:28:52;;;;;;;6.50;4.80;;;;;;;-128.00;-1.00;-1.00;105660;1253;1004924;-79
2023/11/25 05:31:19;;;;;;;7.10;4.80;;;;;;;-128.00;-1.00;-1.00;105667;1253;1003675;-79
2023/11/25 05:33:45;;;;;;;9.90;6.90;;;;;;;-128.00;-1.00;-1.00;105665;1253;1004286;-79
2023/11/25 05:36:12;;;;;;;11.70;8.10;;;;;;;-128.00;-1.00;-1.00;105654;1253;1005187;-79
2023/11/25 05:38:38;;;;;;;22.50;13.30;;;;;;;-128.00;-1.00;-1.00;105453;1253;1003531;-80
2023/11/25 05:41:06;;;;;;;22.70;13.90;;;;;;;-128.00;-1.00;-1.00;105415;1253;1004859;-79
2023/11/25 05:43:33;;;;;;;17.00;9.90;;;;;;;-128.00;-1.00;-1.00;105371;1253;1004608;-78
2023/11/25 05:46:00;;;;;;;16.40;12.50;;;;;;;-128.00;-1.00;-1.00;105429;1253;1004709;-79
2023/11/25 05:48:27;;;;;;;14.20;10.00;;;;;;;-128.00;-1.00;-1.00;105364;1253;1004144;-79
2023/11/25 05:50:54;;;;;;;7.00;4.60;;;;;;;-128.00;-1.00;-1.00;105291;1253;1004361;-79
2023/11/25 05:53:20;;;;;;;8.00;4.50;;;;;;;-128.00;-1.00;-1.00;105365;1253;1004313;-79
2023/11/25 05:55:47;;;;;;;5.70;3.70;;;;;;;-128.00;-1.00;-1.00;105594;1256;1004704;-79
2023/11/25 05:58:13;;;;;;;10.00;3.70;;;;;;;-128.00;-1.00;-1.00;105689;1253;1004510;-79
2023/11/25 06:00:41;;;;;;;7.30;4.20;;;;;;;-128.00;-1.00;-1.00;105657;1253;1004945;-79
2023/11/25 06:03:08;;;;;;;6.10;4.10;;;;;;;-128.00;-1.00;-1.00;105641;1253;1004941;-79
2023/11/25 06:05:34;;;;;;;5.50;3.50;;;;;;;-128.00;-1.00;-1.00;105632;1253;1003457;-79
2023/11/25 06:08:01;;;;;;;3.90;2.40;;;;;;;-128.00;-1.00;-1.00;105634;1253;1003933;-79
2023/11/25 06:10:27;;;;;;;19.60;12.40;;;;;;;-128.00;-1.00;-1.00;105684;1253;1004491;-79
2023/11/25 06:12:54;;;;;;;17.70;10.50;;;;;;;-128.00;-1.00;-1.00;105693;1252;1003548;-79
2023/11/25 06:15:22;;;;;;;18.90;12.60;;;;;;;-128.00;-1.00;-1.00;105664;1253;1003758;-79
2023/11/25 06:17:50;;;;;;;68.80;33.40;;;;;;;-128.00;-1.00;-1.00;105556;1253;1004912;-78
2023/11/25 06:20:17;;;;;;;42.00;28.30;;;;;;;-128.00;-1.00;-1.00;105657;1256;1003548;-79
2023/11/25 06:22:43;;;;;;;10.30;8.30;;;;;;;-128.00;-1.00;-1.00;105688;1253;1003533;-79
2023/11/25 06:25:10;;;;;;;14.30;9.70;;;;;;;-128.00;-1.00;-1.00;105686;1253;1004270;-79
2023/11/25 06:27:36;;;;;;;18.10;11.20;;;;;;;-128.00;-1.00;-1.00;105429;1253;1004093;-79
2023/11/25 06:30:04;;;;;;;9.90;8.50;;;;;;;-128.00;-1.00;-1.00;105380;1253;1004319;-79
2023/11/25 06:32:32;;;;;;;11.90;8.40;;;;;;;-128.00;-1.00;-1.00;105357;1253;1005134;-78
2023/11/25 06:35:00;;;;;;;17.40;15.60;;;;;;;-128.00;-1.00;-1.00;105384;1253;1046235;-79
2023/11/25 06:37:27;;;;;;;19.30;13.30;;;;;;;-128.00;-1.00;-1.00;105382;1252;1003693;-79
2023/11/25 06:39:53;;;;;;;14.10;9.50;;;;;;;-128.00;-1.00;-1.00;105361;1253;1004938;-78
2023/11/25 06:42:22;;;;;;;8.70;6.30;;;;;;;-128.00;-1.00;-1.00;105402;1253;1003818;-79
2023/11/25 06:44:50;;;;;;;9.70;7.50;;;;;;;-128.00;-1.00;-1.00;105381;1253;1046829;-79
2023/11/25 06:47:17;;;;;;;49.10;35.40;;;;;;;-128.00;-1.00;-1.00;105393;1252;1047976;-79
2023/11/25 06:49:45;;;;;;;18.00;13.30;;;;;;;-128.00;-1.00;-1.00;105598;1253;1004783;-78
2023/11/25 06:52:12;;;;;;;35.10;26.80;;;;;;;-128.00;-1.00;-1.00;105652;1253;1005129;-79
2023/11/25 06:54:39;;;;;;;9.40;7.00;;;;;;;-128.00;-1.00;-1.00;105578;1257;1004464;-79
2023/11/25 06:57:06;;;;;;;7.90;6.10;;;;;;;-128.00;-1.00;-1.00;105383;1252;1004930;-79
2023/11/25 06:59:34;;;;;;;5.70;4.50;;;;;;;-128.00;-1.00;-1.00;105431;1253;1003638;-78
2023/11/25 07:02:00;;;;;;;39.10;27.70;;;;;;;-128.00;-1.00;-1.00;105642;1253;1004186;-79
2023/11/25 07:04:27;;;;;;;19.60;15.00;;;;;;;-128.00;-1.00;-1.00;105643;1253;1004230;-79
2023/11/25 07:06:54;;;;;;;29.10;15.30;;;;;;;-128.00;-1.00;-1.00;105558;1253;1004510;-79
2023/11/25 07:09:21;;;;;;;18.30;16.00;;;;;;;-128.00;-1.00;-1.00;105395;1253;1004159;-79
2023/11/25 07:11:51;;;;;;;27.70;23.60;;;;;;;-128.00;-1.00;-1.00;105391;1252;1003778;-79
2023/11/25 07:14:18;;;;;;;82.30;59.70;;;;;;;-128.00;-1.00;-1.00;105392;1253;1062659;-78
2023/11/25 07:16:45;;;;;;;15.20;11.60;;;;;;;-128.00;-1.00;-1.00;105393;1253;1005072;-78
2023/11/25 07:19:11;;;;;;;14.50;9.20;;;;;;;-128.00;-1.00;-1.00;105416;1253;1004541;-79
2023/11/25 07:21:38;;;;;;;12.40;7.40;;;;;;;-128.00;-1.00;-1.00;105653;1253;1003437;-78
2023/11/25 07:24:07;;;;;;;13.20;7.80;;;;;;;-128.00;-1.00;-1.00;105626;1253;1005007;-79
2023/11/25 07:26:42;;;;;;;;;;;;;;;-128.00;-1.00;-1.00;105644;1253;1061519;-78
2023/11/25 07:29:10;;;;;;;14.80;8.20;;;;;;;-128.00;-1.00;-1.00;105411;1253;1057567;-79
2023/11/25 07:31:37;;;;;;;17.50;12.00;;;;;;;-128.00;-1.00;-1.00;105387;1253;1005058;-79
2023/11/25 07:34:06;;;;;;;16.40;9.90;;;;;;;-128.00;-1.00;-1.00;105410;1252;1004773;-78
2023/11/25 07:36:33;;;;;;;19.90;9.60;;;;;;;-128.00;-1.00;-1.00;105423;1253;1047026;-78
2023/11/25 07:38:59;;;;;;;17.60;10.60;;;;;;;-128.00;-1.00;-1.00;105395;1253;1005267;-79
2023/11/25 07:41:26;;;;;;;16.60;8.90;;;;;;;-128.00;-1.00;-1.00;105397;1253;1004793;-79
2023/11/25 07:43:53;;;;;;;14.10;8.30;;;;;;;-128.00;-1.00;-1.00;105311;1253;1004454;-78
2023/11/25 07:46:19;;;;;;;29.90;14.70;;;;;;;-128.00;-1.00;-1.00;105415;1253;1004032;-78
2023/11/25 07:48:46;;;;;;;14.50;8.40;;;;;;;-128.00;-1.00;-1.00;105355;1253;1005070;-79
2023/11/25 07:51:13;;;;;;;37.70;19.50;;;;;;;-128.00;-1.00;-1.00;105382;1253;1003897;-79
2023/11/25 07:53:39;;;;;;;32.80;18.60;;;;;;;-128.00;-1.00;-1.00;105311;1253;1004093;-79
2023/11/25 07:56:06;;;;;;;41.70;24.40;;;;;;;-128.00;-1.00;-1.00;105355;1253;1004080;-78
2023/11/25 07:58:33;;;;;;;33.60;19.00;;;;;;;-128.00;-1.00;-1.00;105325;1253;1003934;-79
2023/11/25 08:00:59;;;;;;;56.50;37.20;;;;;;;-128.00;-1.00;-1.00;105404;1253;1003950;-79
2023/11/25 08:03:26;;;;;;;92.20;65.20;;;;;;;-128.00;-1.00;-1.00;105410;1251;1005232;-79
2023/11/25 08:05:52;;;;;;;25.00;14.30;;;;;;;-128.00;-1.00;-1.00;105379;1253;1003287;-78
2023/11/25 08:08:19;;;;;;;61.90;54.50;;;;;;;-128.00;-1.00;-1.00;105291;1253;1004517;-79
2023/11/25 08:10:46;;;;;;;26.80;22.30;;;;;;;-128.00;-1.00;-1.00;105319;1253;1003551;-79
2023/11/25 08:13:18;;;;;;;15.20;10.90;;;;;;;-128.00;-1.00;-1.00;105456;1251;1003615;-79
2023/11/25 08:15:44;;;;;;;19.60;14.40;;;;;;;-128.00;-1.00;-1.00;105384;1253;1062655;-77
2023/11/25 08:18:11;;;;;;;28.30;19.10;;;;;;;-128.00;-1.00;-1.00;105363;1253;1005421;-80
2023/11/25 08:20:39;;;;;;;15.20;10.40;;;;;;;-128.00;-1.00;-1.00;105378;1251;1004052;-78
2023/11/25 08:23:07;;;;;;;12.30;8.80;;;;;;;-128.00;-1.00;-1.00;105264;1254;1045579;-78
2023/11/25 08:25:34;;;;;;;19.60;12.50;;;;;;;-128.00;-1.00;-1.00;105350;1253;1004735;-78
2023/11/25 08:28:00;;;;;;;20.60;13.30;;;;;;;-128.00;-1.00;-1.00;105398;1251;1004204;-78
2023/11/25 08:30:27;;;;;;;19.60;15.60;;;;;;;-128.00;-1.00;-1.00;105432;1253;1005188;-78
2023/11/25 08:32:54;;;;;;;19.50;13.00;;;;;;;-128.00;-1.00;-1.00;105317;1253;1004486;-78
2023/11/25 08:35:21;;;;;;;15.60;10.80;;;;;;;-128.00;-1.00;-1.00;105384;1251;1004830;-78
2023/11/25 08:37:47;;;;;;;23.20;15.80;;;;;;;-128.00;-1.00;-1.00;105396;1254;1004567;-80
2023/11/25 08:40:17;;;;;;;22.30;14.10;;;;;;;-128.00;-1.00;-1.00;105357;1253;1003802;-78
2023/11/25 08:42:44;;;;;;;17.90;12.70;;;;;;;-128.00;-1.00;-1.00;105407;1253;1057253;-78
2023/11/25 08:45:12;;;;;;;34.40;19.20;;;;;;;-128.00;-1.00;-1.00;105392;1253;1004702;-79
2023/11/25 08:47:41;;;;;;;77.10;33.60;;;;;;;-128.00;-1.00;-1.00;105368;1252;1004466;-78
2023/11/25 08:50:10;;;;;;;41.90;22.90;;;;;;;-128.00;-1.00;-1.00;105422;1252;1048177;-80
2023/11/25 08:52:38;;;;;;;;;;;;;;;-128.00;-1.00;-1.00;105503;1253;1063045;-79
2023/11/25 08:55:09;;;;;;;17.30;12.90;;;;;;;-128.00;-1.00;-1.00;105461;1251;1004517;-79
2023/11/25 08:57:36;;;;;;;16.90;9.40;;;;;;;-128.00;-1.00;-1.00;105567;1253;1059976;-79
2023/11/25 09:00:14;;;;;;;14.00;9.70;;;;;;;-128.00;-1.00;-1.00;105648;1253;1004926;-79
2023/11/25 09:02:42;;;;;;;16.10;10.00;;;;;;;-128.00;-1.00;-1.00;105657;1254;1045814;-79
2023/11/25 09:05:10;;;;;;;13.90;9.20;;;;;;;-128.00;-1.00;-1.00;105668;1253;1004915;-79
2023/11/25 09:07:38;;;;;;;25.20;14.20;;;;;;;-128.00;-1.00;-1.00;105651;1253;1004592;-79
2023/11/25 09:10:05;;;;;;;36.90;23.60;;;;;;;-128.00;-1.00;-1.00;105625;1251;1004959;-79
2023/11/25 09:12:32;;;;;;;27.90;13.60;;;;;;;-128.00;-1.00;-1.00;105529;1253;1004731;-79
2023/11/25 09:14:59;;;;;;;26.60;13.20;;;;;;;-128.00;-1.00;-1.00;105342;1254;1003732;-79
2023/11/25 09:17:26;;;;;;;33.40;21.70;;;;;;;-128.00;-1.00;-1.00;105383;1253;1004406;-79
2023/11/25 09:19:52;;;;;;;24.60;14.70;;;;;;;-128.00;-1.00;-1.00;105388;1253;1004727;-79
2023/11/25 09:22:19;;;;;;;21.90;10.50;;;;;;;-128.00;-1.00;-1.00;105432;1251;1003820;-80
2023/11/25 09:24:46;;;;;;;24.70;14.60;;;;;;;-128.00;-1.00;-1.00;105324;1252;1004900;-78
2023/11/25 09:27:13;;;;;;;26.40;15.10;;;;;;;-128.00;-1.00;-1.00;105403;1256;1004327;-79
2023/11/25 09:29:42;;;;;;;48.60;23.60;;;;;;;-128.00;-1.00;-1.00;105395;1253;1003556;-78
2023/11/25 09:32:10;;;;;;;32.10;18.60;;;;;;;-128.00;-1.00;-1.00;105392;1253;1058406;-79
2023/11/25 09:34:37;;;;;;;20.10;11.90;;;;;;;-128.00;-1.00;-1.00;105341;1253;1004891;-80
2023/11/25 09:37:04;;;;;;;16.50;8.00;;;;;;;-128.00;-1.00;-1.00;105343;1254;1003660;-79
2023/11/25 09:39:31;;;;;;;58.50;26.20;;;;;;;-128.00;-1.00;-1.00;105369;1253;1005621;-78
2023/11/25 09:41:58;;;;;;;38.70;20.40;;;;;;;-128.00;-1.00;-1.00;105421;1254;1004827;-79
2023/11/25 09:44:24;;;;;;;31.20;17.20;;;;;;;-128.00;-1.00;-1.00;105211;1255;1004584;-79
2023/11/25 09:46:51;;;;;;;24.30;15.00;;;;;;;-128.00;-1.00;-1.00;105286;1253;1004726;-80
2023/11/25 09:49:17;;;;;;;35.50;17.60;;;;;;;-128.00;-1.00;-1.00;105356;1256;1004941;-80
2023/11/25 09:51:45;;;;;;;43.50;23.10;;;;;;;-128.00;-1.00;-1.00;105359;1254;1003925;-79
2023/11/25 09:54:11;;;;;;;52.80;26.70;;;;;;;-128.00;-1.00;-1.00;105329;1256;1003854;-80
2023/11/25 09:56:38;;;;;;;25.20;14.40;;;;;;;-128.00;-1.00;-1.00;105391;1256;1004252;-79
2023/11/25 09:59:05;;;;;;;29.40;17.50;;;;;;;-128.00;-1.00;-1.00;105491;1257;1004263;-79
2023/11/25 10:01:32;;;;;;;42.80;26.60;;;;;;;-128.00;-1.00;-1.00;105680;1251;1004297;-78
2023/11/25 10:03:58;;;;;;;17.00;11.10;;;;;;;-128.00;-1.00;-1.00;105629;1257;1004906;-79
2023/11/25 10:06:26;;;;;;;15.00;7.00;;;;;;;-128.00;-1.00;-1.00;105665;1254;1005115;-79
2023/11/25 10:08:52;;;;;;;19.60;9.70;;;;;;;-128.00;-1.00;-1.00;105471;1254;1004141;-81
2023/11/25 10:11:22;;;;;;;13.20;6.60;;;;;;;-128.00;-1.00;-1.00;105358;1253;1004814;-79
2023/11/25 10:13:48;;;;;;;16.80;6.60;;;;;;;-128.00;-1.00;-1.00;105404;1251;1046142;-78
2023/11/25 10:16:27;;;;;;;38.40;20.50;;;;;;;-128.00;-1.00;-1.00;105358;1251;1004911;-79
2023/11/25 10:18:56;;;;;;;11.90;7.60;;;;;;;-128.00;-1.00;-1.00;105336;1252;1062617;-78
2023/11/25 10:21:22;;;;;;;17.80;7.10;;;;;;;-128.00;-1.00;-1.00;105450;1251;1057552;-79
2023/11/25 10:23:50;;;;;;;64.40;36.60;;;;;;;-128.00;-1.00;-1.00;105378;1251;1004146;-79
2023/11/25 10:26:18;;;;;;;33.70;19.40;;;;;;;-128.00;-1.00;-1.00;105441;1251;1004473;-79
2023/11/25 10:28:45;;;;;;;64.20;38.80;;;;;;;-128.00;-1.00;-1.00;105572;1253;1004280;-79
2023/11/25 10:31:14;;;;;;;16.90;11.80;;;;;;;-128.00;-1.00;-1.00;105519;1254;1004343;-78
2023/11/25 10:33:42;;;;;;;19.20;11.30;;;;;;;-128.00;-1.00;-1.00;105510;1256;1005303;-78
2023/11/25 10:36:10;;;;;;;24.50;14.40;;;;;;;-128.00;-1.00;-1.00;105472;1254;1059505;-79
2023/11/25 10:38:40;;;;;;;23.10;13.80;;;;;;;-128.00;-1.00;-1.00;105647;1254;1003930;-78
2023/11/25 10:41:07;;;;;;;45.60;24.10;;;;;;;-128.00;-1.00;-1.00;105475;1251;1047269;-79
2023/11/25 10:43:34;;;;;;;61.20;27.10;;;;;;;-128.00;-1.00;-1.00;105125;1251;1004413;-78
2023/11/25 10:46:02;;;;;;;41.80;20.10;;;;;;;-128.00;-1.00;-1.00;105368;1254;1004778;-79
2023/11/25 10:48:29;;;;;;;22.90;11.40;;;;;;;-128.00;-1.00;-1.00;105411;1251;1004409;-78
2023/11/25 10:50:58;;;;;;;29.80;14.80;;;;;;;-128.00;-1.00;-1.00;105637;1256;1004205;-78
2023/11/25 10:53:31;;;;;;;44.30;17.80;;;;;;;-128.00;-1.00;-1.00;105681;1254;1004355;-78
2023/11/25 10:55:59;;;;;;;12.30;6.80;;;;;;;-128.00;-1.00;-1.00;105659;1255;1062270;-78
2023/11/25 10:58:26;;;;;;;55.30;29.80;;;;;;;-128.00;-1.00;-1.00;105608;1254;1004923;-79
2023/11/25 11:00:53;;;;;;;17.80;9.40;;;;;;;-128.00;-1.00;-1.00;105418;1251;1004849;-78
2023/11/25 11:03:22;;;;;;;22.50;11.10;;;;;;;-128.00;-1.00;-1.00;105296;1251;1004029;-79
2023/11/25 11:05:55;;;;;;;;;;;;;;;-128.00;-1.00;-1.00;105428;1254;1047546;-78
2023/11/25 11:08:24;;;;;;;21.20;15.10;;;;;;;-128.00;-1.00;-1.00;105438;1251;1061511;-78
2023/11/25 11:10:54;;;;;;;20.30;15.40;;;;;;;-128.00;-1.00;-1.00;105406;1253;1058238;-79